sensor_id;sensor_type;location;lat;lon;timestamp;P1;durP1;ratioP1;P2;durP2;ratioP2
53269;SDS011;39159;45.634;9.420;2023-04-22T00:01:46;2.85;;;2.17;;
53269;SDS011;39159;45.634;9.420;2023-04-22T00:04:12;4.10;;;2.45;;
53269;SDS011;39159;45.634;9.420;2023-04-22T00:06:38;3.83;;;2.50;;
53269;SDS011;39159;45.634;9.420;2023-04-22T00:09:04;4.90;;;2.85;;
53269;SDS011;39159;45.634;9.420;2023-04-22T00:11:30;3.67;;;2.45;;
53269;SDS011;39159;45.634;9.420;2023-04-22T00:13:55;3.35;;;2.55;;
53269;SDS011;39159;45.634;9.420;2023-04-22T00:16:21;4.47;;;2.80;;
53269;SDS011;39159;45.634;9.420;2023-04-22T00:18:47;5.05;;;3.08;;
53269;SDS011;39159;45.634;9.420;2023-04-22T00:21:12;4.03;;;2.70;;
53269;SDS011;39159;45.634;9.420;2023-04-22T00:23:38;3.70;;;2.55;;
53269;SDS011;39159;45.634;9.420;2023-04-22T00:26:03;4.80;;;2.83;;
53269;SDS011;39159;45.634;9.420;2023-04-22T00:28:29;5.07;;;2.97;;
53269;SDS011;39159;45.634;9.420;2023-04-22T00:30:55;4.18;;;2.67;;
53269;SDS011;39159;45.634;9.420;2023-04-22T00:33:22;3.25;;;2.58;;
53269;SDS011;39159;45.634;9.420;2023-04-22T00:35:48;8.00;;;2.95;;
53269;SDS011;39159;45.634;9.420;2023-04-22T00:38:13;4.03;;;2.80;;
53269;SDS011;39159;45.634;9.420;2023-04-22T00:40:39;7.63;;;2.72;;
53269;SDS011;39159;45.634;9.420;2023-04-22T00:43:04;3.20;;;2.53;;
53269;SDS011;39159;45.634;9.420;2023-04-22T00:45:32;3.40;;;2.60;;
53269;SDS011;39159;45.634;9.420;2023-04-22T00:47:58;10.43;;;2.92;;
53269;SDS011;39159;45.634;9.420;2023-04-22T00:50:24;3.90;;;2.85;;
53269;SDS011;39159;45.634;9.420;2023-04-22T00:52:49;4.68;;;2.95;;
53269;SDS011;39159;45.634;9.420;2023-04-22T00:55:15;4.78;;;3.30;;
53269;SDS011;39159;45.634;9.420;2023-04-22T00:57:41;8.73;;;3.28;;
53269;SDS011;39159;45.634;9.420;2023-04-22T01:00:07;4.75;;;2.90;;
53269;SDS011;39159;45.634;9.420;2023-04-22T01:02:36;4.00;;;2.92;;
53269;SDS011;39159;45.634;9.420;2023-04-22T01:05:05;4.70;;;3.17;;
53269;SDS011;39159;45.634;9.420;2023-04-22T01:07:33;5.32;;;3.20;;
53269;SDS011;39159;45.634;9.420;2023-04-22T01:10:00;4.38;;;3.15;;
53269;SDS011;39159;45.634;9.420;2023-04-22T01:12:26;3.83;;;2.97;;
53269;SDS011;39159;45.634;9.420;2023-04-22T01:14:52;5.65;;;3.30;;
53269;SDS011;39159;45.634;9.420;2023-04-22T01:17:17;3.72;;;3.00;;
53269;SDS011;39159;45.634;9.420;2023-04-22T01:19:43;5.35;;;3.40;;
53269;SDS011;39159;45.634;9.420;2023-04-22T01:22:10;6.05;;;3.00;;
53269;SDS011;39159;45.634;9.420;2023-04-22T01:24:37;5.63;;;3.28;;
53269;SDS011;39159;45.634;9.420;2023-04-22T01:27:03;4.30;;;2.70;;
53269;SDS011;39159;45.634;9.420;2023-04-22T01:29:29;7.20;;;2.90;;
53269;SDS011;39159;45.634;9.420;2023-04-22T01:31:54;3.92;;;2.75;;
53269;SDS011;39159;45.634;9.420;2023-04-22T01:34:20;4.63;;;3.20;;
53269;SDS011;39159;45.634;9.420;2023-04-22T01:36:46;5.03;;;3.13;;
53269;SDS011;39159;45.634;9.420;2023-04-22T01:39:12;6.82;;;3.00;;
53269;SDS011;39159;45.634;9.420;2023-04-22T01:41:38;4.68;;;3.25;;
53269;SDS011;39159;45.634;9.420;2023-04-22T01:44:03;5.05;;;3.53;;
53269;SDS011;39159;45.634;9.420;2023-04-22T01:46:29;4.15;;;3.03;;
53269;SDS011;39159;45.634;9.420;2023-04-22T01:48:54;4.75;;;2.95;;
53269;SDS011;39159;45.634;9.420;2023-04-22T01:51:20;5.50;;;3.03;;
53269;SDS011;39159;45.634;9.420;2023-04-22T01:53:46;3.78;;;2.75;;
53269;SDS011;39159;45.634;9.420;2023-04-22T01:56:13;7.80;;;3.17;;
53269;SDS011;39159;45.634;9.420;2023-04-22T01:58:38;3.97;;;2.90;;
53269;SDS011;39159;45.634;9.420;2023-04-22T02:01:04;4.22;;;2.97;;
53269;SDS011;39159;45.634;9.420;2023-04-22T02:03:30;4.70;;;2.90;;
53269;SDS011;39159;45.634;9.420;2023-04-22T02:05:56;4.45;;;3.17;;
53269;SDS011;39159;45.634;9.420;2023-04-22T02:08:21;4.05;;;2.90;;
53269;SDS011;39159;45.634;9.420;2023-04-22T02:10:47;4.40;;;2.75;;
53269;SDS011;39159;45.634;9.420;2023-04-22T02:13:12;5.70;;;3.25;;
53269;SDS011;39159;45.634;9.420;2023-04-22T02:15:38;5.07;;;2.75;;
53269;SDS011;39159;45.634;9.420;2023-04-22T02:18:05;4.25;;;2.85;;
53269;SDS011;39159;45.634;9.420;2023-04-22T02:20:31;5.85;;;3.50;;
53269;SDS011;39159;45.634;9.420;2023-04-22T02:22:56;8.07;;;3.58;;
53269;SDS011;39159;45.634;9.420;2023-04-22T02:25:22;5.20;;;3.58;;
53269;SDS011;39159;45.634;9.420;2023-04-22T02:27:47;5.53;;;3.05;;
53269;SDS011;39159;45.634;9.420;2023-04-22T02:30:13;4.82;;;3.17;;
53269;SDS011;39159;45.634;9.420;2023-04-22T02:32:38;3.50;;;2.90;;
53269;SDS011;39159;45.634;9.420;2023-04-22T02:35:04;5.07;;;3.30;;
53269;SDS011;39159;45.634;9.420;2023-04-22T02:37:30;4.75;;;2.80;;
53269;SDS011;39159;45.634;9.420;2023-04-22T02:39:56;3.92;;;2.90;;
53269;SDS011;39159;45.634;9.420;2023-04-22T02:42:21;3.45;;;3.05;;
53269;SDS011;39159;45.634;9.420;2023-04-22T02:44:47;4.65;;;3.15;;
53269;SDS011;39159;45.634;9.420;2023-04-22T02:47:12;3.58;;;2.80;;
53269;SDS011;39159;45.634;9.420;2023-04-22T02:49:38;5.20;;;3.03;;
53269;SDS011;39159;45.634;9.420;2023-04-22T02:52:03;3.40;;;2.90;;
53269;SDS011;39159;45.634;9.420;2023-04-22T02:54:29;5.43;;;2.88;;
53269;SDS011;39159;45.634;9.420;2023-04-22T02:56:54;6.60;;;3.83;;
53269;SDS011;39159;45.634;9.420;2023-04-22T02:59:20;4.78;;;3.53;;
53269;SDS011;39159;45.634;9.420;2023-04-22T03:01:46;4.80;;;3.30;;
53269;SDS011;39159;45.634;9.420;2023-04-22T03:04:11;6.32;;;3.40;;
53269;SDS011;39159;45.634;9.420;2023-04-22T03:06:38;5.80;;;3.30;;
53269;SDS011;39159;45.634;9.420;2023-04-22T03:09:03;4.05;;;3.30;;
53269;SDS011;39159;45.634;9.420;2023-04-22T03:11:29;4.80;;;3.63;;
53269;SDS011;39159;45.634;9.420;2023-04-22T03:13:54;5.82;;;3.97;;
53269;SDS011;39159;45.634;9.420;2023-04-22T03:16:21;6.20;;;4.45;;
53269;SDS011;39159;45.634;9.420;2023-04-22T03:18:48;5.18;;;3.90;;
53269;SDS011;39159;45.634;9.420;2023-04-22T03:21:13;5.78;;;4.32;;
53269;SDS011;39159;45.634;9.420;2023-04-22T03:23:39;6.38;;;4.28;;
53269;SDS011;39159;45.634;9.420;2023-04-22T03:26:05;6.15;;;3.75;;
53269;SDS011;39159;45.634;9.420;2023-04-22T03:28:30;6.38;;;4.38;;
53269;SDS011;39159;45.634;9.420;2023-04-22T03:30:56;4.90;;;3.92;;
53269;SDS011;39159;45.634;9.420;2023-04-22T03:33:21;6.32;;;4.15;;
53269;SDS011;39159;45.634;9.420;2023-04-22T03:35:47;5.47;;;4.07;;
53269;SDS011;39159;45.634;9.420;2023-04-22T03:38:14;4.90;;;3.78;;
53269;SDS011;39159;45.634;9.420;2023-04-22T03:40:40;4.47;;;3.45;;
53269;SDS011;39159;45.634;9.420;2023-04-22T03:43:06;6.43;;;3.72;;
53269;SDS011;39159;45.634;9.420;2023-04-22T03:45:31;5.90;;;4.00;;
53269;SDS011;39159;45.634;9.420;2023-04-22T03:47:57;5.93;;;3.72;;
53269;SDS011;39159;45.634;9.420;2023-04-22T03:50:23;5.03;;;3.92;;
53269;SDS011;39159;45.634;9.420;2023-04-22T03:52:48;5.97;;;3.92;;
53269;SDS011;39159;45.634;9.420;2023-04-22T03:55:14;5.93;;;3.83;;
53269;SDS011;39159;45.634;9.420;2023-04-22T03:57:39;5.53;;;3.75;;
53269;SDS011;39159;45.634;9.420;2023-04-22T04:00:05;7.13;;;4.60;;
53269;SDS011;39159;45.634;9.420;2023-04-22T04:02:31;6.47;;;4.43;;
53269;SDS011;39159;45.634;9.420;2023-04-22T04:04:56;6.18;;;4.30;;
53269;SDS011;39159;45.634;9.420;2023-04-22T04:07:22;8.18;;;4.45;;
53269;SDS011;39159;45.634;9.420;2023-04-22T04:09:47;6.78;;;3.80;;
53269;SDS011;39159;45.634;9.420;2023-04-22T04:12:13;6.63;;;3.90;;
53269;SDS011;39159;45.634;9.420;2023-04-22T04:14:38;6.25;;;4.10;;
53269;SDS011;39159;45.634;9.420;2023-04-22T04:17:04;4.72;;;3.60;;
53269;SDS011;39159;45.634;9.420;2023-04-22T04:19:34;7.05;;;3.97;;
53269;SDS011;39159;45.634;9.420;2023-04-22T04:22:00;5.75;;;3.90;;
53269;SDS011;39159;45.634;9.420;2023-04-22T04:24:26;6.25;;;4.10;;
53269;SDS011;39159;45.634;9.420;2023-04-22T04:26:52;7.50;;;4.53;;
53269;SDS011;39159;45.634;9.420;2023-04-22T04:29:18;4.68;;;3.70;;
53269;SDS011;39159;45.634;9.420;2023-04-22T04:31:44;5.05;;;3.83;;
53269;SDS011;39159;45.634;9.420;2023-04-22T04:34:10;6.75;;;4.18;;
53269;SDS011;39159;45.634;9.420;2023-04-22T04:36:35;10.48;;;4.13;;
53269;SDS011;39159;45.634;9.420;2023-04-22T04:39:03;6.57;;;4.00;;
53269;SDS011;39159;45.634;9.420;2023-04-22T04:41:29;5.15;;;3.67;;
53269;SDS011;39159;45.634;9.420;2023-04-22T04:43:55;5.85;;;3.92;;
53269;SDS011;39159;45.634;9.420;2023-04-22T04:46:24;4.65;;;3.90;;
53269;SDS011;39159;45.634;9.420;2023-04-22T04:48:53;9.23;;;3.90;;
53269;SDS011;39159;45.634;9.420;2023-04-22T04:51:19;5.55;;;3.92;;
53269;SDS011;39159;45.634;9.420;2023-04-22T04:53:45;8.23;;;4.82;;
53269;SDS011;39159;45.634;9.420;2023-04-22T04:56:10;8.25;;;5.38;;
53269;SDS011;39159;45.634;9.420;2023-04-22T04:58:36;6.05;;;4.47;;
53269;SDS011;39159;45.634;9.420;2023-04-22T05:01:01;7.43;;;4.57;;
53269;SDS011;39159;45.634;9.420;2023-04-22T05:03:27;5.43;;;3.85;;
53269;SDS011;39159;45.634;9.420;2023-04-22T05:05:52;10.18;;;4.18;;
53269;SDS011;39159;45.634;9.420;2023-04-22T05:08:18;5.72;;;3.80;;
53269;SDS011;39159;45.634;9.420;2023-04-22T05:10:43;5.47;;;3.90;;
53269;SDS011;39159;45.634;9.420;2023-04-22T05:13:09;6.20;;;3.80;;
53269;SDS011;39159;45.634;9.420;2023-04-22T05:15:35;7.93;;;3.90;;
53269;SDS011;39159;45.634;9.420;2023-04-22T05:18:00;6.07;;;3.45;;
53269;SDS011;39159;45.634;9.420;2023-04-22T05:20:26;4.18;;;3.22;;
53269;SDS011;39159;45.634;9.420;2023-04-22T05:22:52;10.70;;;4.45;;
53269;SDS011;39159;45.634;9.420;2023-04-22T05:25:17;12.35;;;4.10;;
53269;SDS011;39159;45.634;9.420;2023-04-22T05:27:43;5.50;;;3.65;;
53269;SDS011;39159;45.634;9.420;2023-04-22T05:30:08;5.28;;;3.80;;
53269;SDS011;39159;45.634;9.420;2023-04-22T05:32:34;6.07;;;3.35;;
53269;SDS011;39159;45.634;9.420;2023-04-22T05:34:59;4.78;;;3.40;;
53269;SDS011;39159;45.634;9.420;2023-04-22T05:37:25;4.90;;;3.10;;
53269;SDS011;39159;45.634;9.420;2023-04-22T05:39:50;4.85;;;3.25;;
53269;SDS011;39159;45.634;9.420;2023-04-22T05:42:16;4.72;;;3.22;;
53269;SDS011;39159;45.634;9.420;2023-04-22T05:44:41;4.65;;;3.40;;
53269;SDS011;39159;45.634;9.420;2023-04-22T05:47:07;3.85;;;2.97;;
53269;SDS011;39159;45.634;9.420;2023-04-22T05:49:32;5.15;;;3.40;;
53269;SDS011;39159;45.634;9.420;2023-04-22T05:51:58;4.93;;;3.47;;
53269;SDS011;39159;45.634;9.420;2023-04-22T05:54:23;5.47;;;3.80;;
53269;SDS011;39159;45.634;9.420;2023-04-22T05:56:49;5.00;;;3.83;;
53269;SDS011;39159;45.634;9.420;2023-04-22T05:59:14;7.18;;;4.35;;
53269;SDS011;39159;45.634;9.420;2023-04-22T06:01:40;6.63;;;4.65;;
53269;SDS011;39159;45.634;9.420;2023-04-22T06:04:05;6.00;;;3.92;;
53269;SDS011;39159;45.634;9.420;2023-04-22T06:06:33;6.00;;;3.80;;
53269;SDS011;39159;45.634;9.420;2023-04-22T06:08:59;12.65;;;4.35;;
53269;SDS011;39159;45.634;9.420;2023-04-22T06:11:25;7.18;;;3.47;;
53269;SDS011;39159;45.634;9.420;2023-04-22T06:13:51;4.50;;;3.38;;
53269;SDS011;39159;45.634;9.420;2023-04-22T06:16:17;5.13;;;3.55;;
53269;SDS011;39159;45.634;9.420;2023-04-22T06:18:43;6.13;;;3.65;;
53269;SDS011;39159;45.634;9.420;2023-04-22T06:21:09;5.97;;;3.10;;
53269;SDS011;39159;45.634;9.420;2023-04-22T06:23:34;7.47;;;3.13;;
53269;SDS011;39159;45.634;9.420;2023-04-22T06:26:00;4.40;;;3.13;;
53269;SDS011;39159;45.634;9.420;2023-04-22T06:28:26;4.38;;;3.22;;
53269;SDS011;39159;45.634;9.420;2023-04-22T06:30:52;5.03;;;2.55;;
53269;SDS011;39159;45.634;9.420;2023-04-22T06:33:17;4.30;;;2.85;;
53269;SDS011;39159;45.634;9.420;2023-04-22T06:35:43;6.72;;;3.10;;
53269;SDS011;39159;45.634;9.420;2023-04-22T06:38:09;7.22;;;3.08;;
53269;SDS011;39159;45.634;9.420;2023-04-22T06:40:34;4.53;;;2.95;;
53269;SDS011;39159;45.634;9.420;2023-04-22T06:43:00;3.10;;;2.70;;
53269;SDS011;39159;45.634;9.420;2023-04-22T06:45:25;4.32;;;2.60;;
53269;SDS011;39159;45.634;9.420;2023-04-22T06:47:51;3.80;;;2.92;;
53269;SDS011;39159;45.634;9.420;2023-04-22T06:50:20;3.53;;;2.88;;
53269;SDS011;39159;45.634;9.420;2023-04-22T06:52:45;8.52;;;3.20;;
53269;SDS011;39159;45.634;9.420;2023-04-22T06:55:11;4.20;;;2.67;;
53269;SDS011;39159;45.634;9.420;2023-04-22T06:57:37;5.78;;;3.03;;
53269;SDS011;39159;45.634;9.420;2023-04-22T07:00:05;4.82;;;3.00;;
53269;SDS011;39159;45.634;9.420;2023-04-22T07:02:34;4.55;;;3.08;;
53269;SDS011;39159;45.634;9.420;2023-04-22T07:04:59;8.57;;;3.30;;
53269;SDS011;39159;45.634;9.420;2023-04-22T07:07:25;6.43;;;3.53;;
53269;SDS011;39159;45.634;9.420;2023-04-22T07:09:51;6.20;;;3.50;;
53269;SDS011;39159;45.634;9.420;2023-04-22T07:12:16;5.18;;;2.92;;
53269;SDS011;39159;45.634;9.420;2023-04-22T07:14:44;5.10;;;3.63;;
53269;SDS011;39159;45.634;9.420;2023-04-22T07:17:11;7.15;;;3.88;;
53269;SDS011;39159;45.634;9.420;2023-04-22T07:19:37;16.60;;;3.60;;
53269;SDS011;39159;45.634;9.420;2023-04-22T07:22:03;10.13;;;3.63;;
53269;SDS011;39159;45.634;9.420;2023-04-22T07:24:29;4.70;;;3.42;;
53269;SDS011;39159;45.634;9.420;2023-04-22T07:26:55;7.10;;;3.78;;
53269;SDS011;39159;45.634;9.420;2023-04-22T07:29:20;6.72;;;3.88;;
53269;SDS011;39159;45.634;9.420;2023-04-22T07:31:46;5.05;;;3.30;;
53269;SDS011;39159;45.634;9.420;2023-04-22T07:34:11;5.97;;;3.90;;
53269;SDS011;39159;45.634;9.420;2023-04-22T07:36:38;5.43;;;3.70;;
53269;SDS011;39159;45.634;9.420;2023-04-22T07:39:03;7.45;;;3.70;;
53269;SDS011;39159;45.634;9.420;2023-04-22T07:41:29;6.10;;;4.93;;
53269;SDS011;39159;45.634;9.420;2023-04-22T07:43:54;8.20;;;5.85;;
53269;SDS011;39159;45.634;9.420;2023-04-22T07:46:20;10.95;;;6.75;;
53269;SDS011;39159;45.634;9.420;2023-04-22T07:48:46;9.45;;;6.13;;
53269;SDS011;39159;45.634;9.420;2023-04-22T07:51:11;7.75;;;5.35;;
53269;SDS011;39159;45.634;9.420;2023-04-22T07:53:37;9.00;;;5.80;;
53269;SDS011;39159;45.634;9.420;2023-04-22T07:56:02;7.05;;;5.40;;
53269;SDS011;39159;45.634;9.420;2023-04-22T07:58:28;9.05;;;6.30;;
53269;SDS011;39159;45.634;9.420;2023-04-22T08:00:53;9.05;;;6.60;;
53269;SDS011;39159;45.634;9.420;2023-04-22T08:03:19;7.45;;;5.40;;
53269;SDS011;39159;45.634;9.420;2023-04-22T08:05:44;7.63;;;5.80;;
53269;SDS011;39159;45.634;9.420;2023-04-22T08:08:10;8.23;;;6.00;;
53269;SDS011;39159;45.634;9.420;2023-04-22T08:10:35;10.63;;;5.75;;
53269;SDS011;39159;45.634;9.420;2023-04-22T08:13:01;8.77;;;6.43;;
53269;SDS011;39159;45.634;9.420;2023-04-22T08:15:28;7.70;;;5.85;;
53269;SDS011;39159;45.634;9.420;2023-04-22T08:17:53;8.75;;;6.38;;
53269;SDS011;39159;45.634;9.420;2023-04-22T08:20:18;9.30;;;6.47;;
53269;SDS011;39159;45.634;9.420;2023-04-22T08:22:44;9.63;;;6.25;;
53269;SDS011;39159;45.634;9.420;2023-04-22T08:25:11;7.43;;;5.75;;
53269;SDS011;39159;45.634;9.420;2023-04-22T08:27:37;10.88;;;6.13;;
53269;SDS011;39159;45.634;9.420;2023-04-22T08:30:03;8.82;;;6.68;;
53269;SDS011;39159;45.634;9.420;2023-04-22T08:32:30;7.65;;;5.70;;
53269;SDS011;39159;45.634;9.420;2023-04-22T08:34:55;128.32;;;16.95;;
53269;SDS011;39159;45.634;9.420;2023-04-22T08:37:21;9.60;;;6.78;;
53269;SDS011;39159;45.634;9.420;2023-04-22T08:39:46;7.95;;;5.20;;
53269;SDS011;39159;45.634;9.420;2023-04-22T08:42:12;8.80;;;5.45;;
53269;SDS011;39159;45.634;9.420;2023-04-22T08:44:39;8.07;;;6.20;;
53269;SDS011;39159;45.634;9.420;2023-04-22T08:47:05;7.47;;;5.28;;
53269;SDS011;39159;45.634;9.420;2023-04-22T08:49:32;9.25;;;5.68;;
53269;SDS011;39159;45.634;9.420;2023-04-22T08:51:59;8.20;;;5.68;;
53269;SDS011;39159;45.634;9.420;2023-04-22T08:54:24;7.65;;;6.10;;
53269;SDS011;39159;45.634;9.420;2023-04-22T08:56:50;9.00;;;5.82;;
53269;SDS011;39159;45.634;9.420;2023-04-22T08:59:17;7.82;;;5.80;;
53269;SDS011;39159;45.634;9.420;2023-04-22T09:01:43;8.73;;;4.85;;
53269;SDS011;39159;45.634;9.420;2023-04-22T09:04:13;8.98;;;5.78;;
53269;SDS011;39159;45.634;9.420;2023-04-22T09:06:39;9.77;;;5.75;;
53269;SDS011;39159;45.634;9.420;2023-04-22T09:09:05;7.53;;;5.40;;
53269;SDS011;39159;45.634;9.420;2023-04-22T09:11:33;8.02;;;5.95;;
53269;SDS011;39159;45.634;9.420;2023-04-22T09:13:58;10.45;;;6.20;;
53269;SDS011;39159;45.634;9.420;2023-04-22T09:16:24;10.80;;;5.93;;
53269;SDS011;39159;45.634;9.420;2023-04-22T09:18:49;8.77;;;5.45;;
53269;SDS011;39159;45.634;9.420;2023-04-22T09:21:15;10.85;;;6.43;;
53269;SDS011;39159;45.634;9.420;2023-04-22T09:23:47;10.82;;;5.65;;
53269;SDS011;39159;45.634;9.420;2023-04-22T09:26:14;10.70;;;6.68;;
53269;SDS011;39159;45.634;9.420;2023-04-22T09:28:52;8.82;;;6.40;;
53269;SDS011;39159;45.634;9.420;2023-04-22T09:31:20;14.18;;;8.05;;
53269;SDS011;39159;45.634;9.420;2023-04-22T09:33:47;12.10;;;7.68;;
53269;SDS011;39159;45.634;9.420;2023-04-22T09:36:14;12.85;;;7.45;;
53269;SDS011;39159;45.634;9.420;2023-04-22T09:38:47;11.52;;;8.07;;
53269;SDS011;39159;45.634;9.420;2023-04-22T09:41:15;9.90;;;7.22;;
53269;SDS011;39159;45.634;9.420;2023-04-22T09:43:41;12.10;;;7.75;;
53269;SDS011;39159;45.634;9.420;2023-04-22T09:46:07;9.20;;;7.10;;
53269;SDS011;39159;45.634;9.420;2023-04-22T09:48:37;9.07;;;6.13;;
53269;SDS011;39159;45.634;9.420;2023-04-22T09:53:38;10.00;;;6.38;;
53269;SDS011;39159;45.634;9.420;2023-04-22T09:56:04;10.68;;;6.93;;
53269;SDS011;39159;45.634;9.420;2023-04-22T09:58:29;9.00;;;6.60;;
53269;SDS011;39159;45.634;9.420;2023-04-22T10:00:56;11.15;;;7.43;;
53269;SDS011;39159;45.634;9.420;2023-04-22T10:03:27;9.90;;;6.88;;
53269;SDS011;39159;45.634;9.420;2023-04-22T10:05:52;12.38;;;7.38;;
53269;SDS011;39159;45.634;9.420;2023-04-22T10:08:18;8.82;;;6.60;;
53269;SDS011;39159;45.634;9.420;2023-04-22T10:10:43;9.70;;;7.50;;
53269;SDS011;39159;45.634;9.420;2023-04-22T10:13:09;9.73;;;7.72;;
53269;SDS011;39159;45.634;9.420;2023-04-22T10:15:41;9.07;;;6.78;;
53269;SDS011;39159;45.634;9.420;2023-04-22T10:18:09;10.48;;;7.38;;
53269;SDS011;39159;45.634;9.420;2023-04-22T10:20:39;8.93;;;6.97;;
53269;SDS011;39159;45.634;9.420;2023-04-22T10:23:11;12.75;;;7.30;;
53269;SDS011;39159;45.634;9.420;2023-04-22T10:25:38;10.85;;;6.78;;
53269;SDS011;39159;45.634;9.420;2023-04-22T10:28:08;9.40;;;6.78;;
53269;SDS011;39159;45.634;9.420;2023-04-22T10:30:35;11.32;;;8.40;;
53269;SDS011;39159;45.634;9.420;2023-04-22T10:39:13;12.57;;;7.72;;
53269;SDS011;39159;45.634;9.420;2023-04-22T10:41:24;10.00;;;7.28;;
53269;SDS011;39159;45.634;9.420;2023-04-22T10:43:56;9.95;;;7.63;;
53269;SDS011;39159;45.634;9.420;2023-04-22T10:49:16;11.43;;;6.82;;
53269;SDS011;39159;45.634;9.420;2023-04-22T10:51:43;9.05;;;6.43;;
53269;SDS011;39159;45.634;9.420;2023-04-22T10:57:15;8.90;;;6.60;;
53269;SDS011;39159;45.634;9.420;2023-04-22T10:59:52;8.30;;;6.20;;
53269;SDS011;39159;45.634;9.420;2023-04-22T11:02:20;10.30;;;6.72;;
53269;SDS011;39159;45.634;9.420;2023-04-22T11:04:47;9.70;;;7.05;;
53269;SDS011;39159;45.634;9.420;2023-04-22T11:07:13;10.00;;;6.55;;
53269;SDS011;39159;45.634;9.420;2023-04-22T11:09:43;7.57;;;6.20;;
53269;SDS011;39159;45.634;9.420;2023-04-22T11:15:21;9.77;;;7.68;;
53269;SDS011;39159;45.634;9.420;2023-04-22T11:17:51;10.85;;;8.60;;
53269;SDS011;39159;45.634;9.420;2023-04-22T11:20:18;11.45;;;8.10;;
53269;SDS011;39159;45.634;9.420;2023-04-22T11:22:45;10.90;;;7.75;;
53269;SDS011;39159;45.634;9.420;2023-04-22T11:25:12;10.32;;;7.90;;
53269;SDS011;39159;45.634;9.420;2023-04-22T11:27:39;10.52;;;6.95;;
53269;SDS011;39159;45.634;9.420;2023-04-22T11:30:08;7.90;;;6.15;;
53269;SDS011;39159;45.634;9.420;2023-04-22T11:32:39;7.30;;;5.53;;
53269;SDS011;39159;45.634;9.420;2023-04-22T11:35:09;8.32;;;6.10;;
53269;SDS011;39159;45.634;9.420;2023-04-22T11:37:39;8.10;;;6.00;;
53269;SDS011;39159;45.634;9.420;2023-04-22T11:40:06;9.32;;;6.43;;
53269;SDS011;39159;45.634;9.420;2023-04-22T11:42:34;7.72;;;6.30;;
53269;SDS011;39159;45.634;9.420;2023-04-22T11:45:00;9.43;;;6.95;;
53269;SDS011;39159;45.634;9.420;2023-04-22T11:47:28;9.32;;;7.10;;
53269;SDS011;39159;45.634;9.420;2023-04-22T11:49:58;9.77;;;7.43;;
53269;SDS011;39159;45.634;9.420;2023-04-22T11:55:44;9.00;;;7.10;;
53269;SDS011;39159;45.634;9.420;2023-04-22T12:00:35;10.48;;;7.03;;
53269;SDS011;39159;45.634;9.420;2023-04-22T12:05:50;9.68;;;7.18;;
53269;SDS011;39159;45.634;9.420;2023-04-22T12:08:20;8.23;;;6.70;;
53269;SDS011;39159;45.634;9.420;2023-04-22T12:10:57;7.03;;;5.45;;
53269;SDS011;39159;45.634;9.420;2023-04-22T12:15:55;7.63;;;5.90;;
53269;SDS011;39159;45.634;9.420;2023-04-22T12:18:31;8.63;;;6.95;;
53269;SDS011;39159;45.634;9.420;2023-04-22T12:21:10;8.35;;;5.60;;
53269;SDS011;39159;45.634;9.420;2023-04-22T12:24:10;9.32;;;5.80;;
53269;SDS011;39159;45.634;9.420;2023-04-22T12:26:35;11.82;;;7.13;;
53269;SDS011;39159;45.634;9.420;2023-04-22T12:29:02;8.13;;;6.60;;
53269;SDS011;39159;45.634;9.420;2023-04-22T12:31:27;10.65;;;6.25;;
53269;SDS011;39159;45.634;9.420;2023-04-22T12:33:53;9.40;;;6.93;;
53269;SDS011;39159;45.634;9.420;2023-04-22T12:36:19;10.35;;;6.35;;
53269;SDS011;39159;45.634;9.420;2023-04-22T12:38:45;9.07;;;6.75;;
53269;SDS011;39159;45.634;9.420;2023-04-22T12:41:11;8.05;;;6.15;;
53269;SDS011;39159;45.634;9.420;2023-04-22T12:43:37;9.48;;;6.47;;
53269;SDS011;39159;45.634;9.420;2023-04-22T12:46:04;9.02;;;6.22;;
53269;SDS011;39159;45.634;9.420;2023-04-22T12:48:30;8.18;;;6.10;;
53269;SDS011;39159;45.634;9.420;2023-04-22T12:50:56;8.00;;;6.20;;
53269;SDS011;39159;45.634;9.420;2023-04-22T12:53:22;7.47;;;6.05;;
53269;SDS011;39159;45.634;9.420;2023-04-22T12:55:48;10.23;;;5.78;;
53269;SDS011;39159;45.634;9.420;2023-04-22T12:58:14;7.32;;;5.72;;
53269;SDS011;39159;45.634;9.420;2023-04-22T13:00:40;7.97;;;6.43;;
53269;SDS011;39159;45.634;9.420;2023-04-22T13:03:05;10.27;;;5.97;;
53269;SDS011;39159;45.634;9.420;2023-04-22T13:05:31;8.20;;;5.70;;
53269;SDS011;39159;45.634;9.420;2023-04-22T13:07:56;7.53;;;6.03;;
53269;SDS011;39159;45.634;9.420;2023-04-22T13:10:22;8.05;;;6.57;;
53269;SDS011;39159;45.634;9.420;2023-04-22T13:12:48;8.75;;;6.10;;
53269;SDS011;39159;45.634;9.420;2023-04-22T13:15:13;10.20;;;7.18;;
53269;SDS011;39159;45.634;9.420;2023-04-22T13:17:40;8.10;;;6.25;;
53269;SDS011;39159;45.634;9.420;2023-04-22T13:20:06;10.80;;;6.97;;
53269;SDS011;39159;45.634;9.420;2023-04-22T13:22:33;9.35;;;6.57;;
53269;SDS011;39159;45.634;9.420;2023-04-22T13:25:00;9.05;;;7.00;;
53269;SDS011;39159;45.634;9.420;2023-04-22T13:27:25;9.43;;;6.68;;
53269;SDS011;39159;45.634;9.420;2023-04-22T13:29:51;6.93;;;5.35;;
53269;SDS011;39159;45.634;9.420;2023-04-22T13:32:16;5.88;;;5.28;;
53269;SDS011;39159;45.634;9.420;2023-04-22T13:34:43;6.30;;;4.75;;
53269;SDS011;39159;45.634;9.420;2023-04-22T13:37:09;8.80;;;6.50;;
53269;SDS011;39159;45.634;9.420;2023-04-22T13:39:35;6.93;;;5.60;;
53269;SDS011;39159;45.634;9.420;2023-04-22T13:42:01;7.40;;;4.80;;
53269;SDS011;39159;45.634;9.420;2023-04-22T13:44:27;6.85;;;4.57;;
53269;SDS011;39159;45.634;9.420;2023-04-22T13:46:53;6.63;;;4.75;;
53269;SDS011;39159;45.634;9.420;2023-04-22T13:49:18;5.85;;;4.75;;
53269;SDS011;39159;45.634;9.420;2023-04-22T13:51:44;8.75;;;4.80;;
53269;SDS011;39159;45.634;9.420;2023-04-22T13:54:10;7.43;;;4.32;;
53269;SDS011;39159;45.634;9.420;2023-04-22T13:56:35;4.95;;;3.90;;
53269;SDS011;39159;45.634;9.420;2023-04-22T13:59:01;5.47;;;4.72;;
53269;SDS011;39159;45.634;9.420;2023-04-22T14:01:26;7.97;;;4.82;;
53269;SDS011;39159;45.634;9.420;2023-04-22T14:03:52;10.57;;;5.53;;
53269;SDS011;39159;45.634;9.420;2023-04-22T14:06:19;7.80;;;5.53;;
53269;SDS011;39159;45.634;9.420;2023-04-22T14:08:45;11.13;;;4.43;;
53269;SDS011;39159;45.634;9.420;2023-04-22T14:11:10;7.80;;;5.90;;
53269;SDS011;39159;45.634;9.420;2023-04-22T14:13:36;6.22;;;5.00;;
53269;SDS011;39159;45.634;9.420;2023-04-22T14:16:03;5.43;;;4.03;;
53269;SDS011;39159;45.634;9.420;2023-04-22T14:18:33;9.43;;;5.20;;
53269;SDS011;39159;45.634;9.420;2023-04-22T14:21:01;7.03;;;4.68;;
53269;SDS011;39159;45.634;9.420;2023-04-22T14:23:31;7.63;;;5.80;;
53269;SDS011;39159;45.634;9.420;2023-04-22T14:25:58;7.15;;;4.72;;
53269;SDS011;39159;45.634;9.420;2023-04-22T14:28:24;8.60;;;6.18;;
53269;SDS011;39159;45.634;9.420;2023-04-22T14:30:50;9.25;;;7.10;;
53269;SDS011;39159;45.634;9.420;2023-04-22T14:33:16;6.93;;;5.80;;
53269;SDS011;39159;45.634;9.420;2023-04-22T14:35:42;11.45;;;5.78;;
53269;SDS011;39159;45.634;9.420;2023-04-22T14:38:08;7.72;;;6.13;;
53269;SDS011;39159;45.634;9.420;2023-04-22T14:40:35;12.98;;;8.57;;
53269;SDS011;39159;45.634;9.420;2023-04-22T14:43:02;11.20;;;7.88;;
53269;SDS011;39159;45.634;9.420;2023-04-22T14:45:29;10.85;;;7.95;;
53269;SDS011;39159;45.634;9.420;2023-04-22T14:47:56;11.23;;;7.15;;
53269;SDS011;39159;45.634;9.420;2023-04-22T14:50:22;8.15;;;6.60;;
53269;SDS011;39159;45.634;9.420;2023-04-22T14:52:48;6.35;;;5.00;;
53269;SDS011;39159;45.634;9.420;2023-04-22T14:55:14;8.95;;;6.65;;
53269;SDS011;39159;45.634;9.420;2023-04-22T14:57:40;9.18;;;6.65;;
53269;SDS011;39159;45.634;9.420;2023-04-22T15:00:06;8.88;;;6.95;;
53269;SDS011;39159;45.634;9.420;2023-04-22T15:02:32;10.48;;;7.65;;
53269;SDS011;39159;45.634;9.420;2023-04-22T15:04:58;10.25;;;7.47;;
53269;SDS011;39159;45.634;9.420;2023-04-22T15:07:24;9.23;;;6.45;;
53269;SDS011;39159;45.634;9.420;2023-04-22T15:09:50;7.88;;;6.20;;